Time;durP1;ratioP1;P1;durP2;ratioP2;P2;SDS_P1;SDS_P2;PMS_P1;PMS_P2;Temp;Humidity;BMP_temperature;BMP_pressure;BME280_temperature;BME280_humidity;BME280_pressure;Samples;Min_cycle;Max_cycle;Signal;HPM_P1;HPM_P2
2023/12/11 00:02:16;;;;;;;33.10;19.10;;;;;;;4.30;74.85;98328.23;234263;212;149914;-53
2023/12/11 00:07:19;;;;;;;28.00;18.00;;;;;;;4.28;74.97;98322.48;233847;212;139316;-53
2023/12/11 00:12:22;;;;;;;31.60;18.00;;;;;;;4.26;75.27;98319.97;233774;213;136988;-51
2023/12/11 00:17:27;;;;;;;30.80;19.50;;;;;;;4.24;75.23;98317.77;233245;212;149135;-49
2023/12/11 00:22:31;;;;;;;30.80;17.60;;;;;;;4.24;75.42;98319.70;233867;215;138657;-51
2023/12/11 00:27:34;;;;;;;28.30;16.20;;;;;;;4.30;75.81;98318.35;234417;215;136721;-54
2023/12/11 00:32:38;;;;;;;30.00;16.30;;;;;;;4.38;75.57;98313.77;234406;215;149591;-53
2023/12/11 00:37:42;;;;;;;23.90;15.20;;;;;;;4.42;75.28;98293.87;234490;213;138618;-55
2023/12/11 00:42:45;;;;;;;30.40;17.40;;;;;;;4.44;74.80;98285.36;234516;215;136978;-54
2023/12/11 00:47:48;;;;;;;31.50;16.70;;;;;;;4.44;74.62;98284.29;233796;211;149800;-49
2023/12/11 00:52:51;;;;;;;27.80;16.70;;;;;;;4.41;74.39;98278.48;234397;215;138391;-53
2023/12/11 00:57:55;;;;;;;27.90;16.90;;;;;;;4.32;74.51;98273.64;233788;215;137174;-53
2023/12/11 01:02:58;;;;;;;28.80;16.20;;;;;;;4.23;74.53;98266.53;234390;214;149822;-53
2023/12/11 01:08:01;;;;;;;27.20;16.20;;;;;;;4.18;74.70;98256.45;234138;215;140540;-55
2023/12/11 01:13:04;;;;;;;26.40;16.30;;;;;;;4.12;74.73;98252.68;234519;212;136979;-54
2023/12/11 01:18:08;;;;;;;28.80;15.70;;;;;;;4.05;74.69;98261.11;234401;215;149156;-53
2023/12/11 01:23:11;;;;;;;27.80;15.00;;;;;;;3.97;74.61;98263.27;233818;212;139624;-53
2023/12/11 01:28:14;;;;;;;23.90;14.70;;;;;;;3.92;74.72;98259.66;234360;215;138903;-53
2023/12/11 01:33:17;;;;;;;27.60;15.10;;;;;;;3.92;74.82;98246.27;234338;213;150074;-54
2023/12/11 01:38:21;;;;;;;26.30;15.50;;;;;;;3.92;74.55;98235.57;234356;215;139346;-54
2023/12/11 01:43:25;;;;;;;24.00;15.20;;;;;;;3.89;74.54;98228.88;234318;215;137850;-52
2023/12/11 01:48:28;;;;;;;24.30;14.40;;;;;;;3.85;74.47;98218.58;234463;214;150409;-53
2023/12/11 01:53:33;;;;;;;21.80;14.00;;;;;;;3.75;74.68;98221.64;233709;215;139618;-53
2023/12/11 01:58:36;;;;;;;24.60;14.00;;;;;;;3.72;74.89;98210.38;233844;213;136693;-53
2023/12/11 02:03:40;;;;;;;14.70;7.50;;;;;;;3.78;75.26;98206.60;234302;215;149213;-52
2023/12/11 02:08:46;;;;;;;21.90;11.40;;;;;;;4.00;75.94;98194.46;234347;215;139189;-54
2023/12/11 02:13:50;;;;;;;21.50;10.60;;;;;;;3.99;74.94;98193.13;234424;214;137349;-54
2023/12/11 02:18:53;;;;;;;19.70;9.80;;;;;;;3.90;74.98;98186.02;234558;213;149250;-54
2023/12/11 02:24:08;;;;;;;23.00;11.40;;;;;;;3.92;75.05;98180.66;234019;213;138732;-52
2023/12/11 02:29:11;;;;;;;19.40;9.70;;;;;;;3.93;75.00;98169.91;234459;215;137198;-52
2023/12/11 02:34:17;;;;;;;19.50;9.60;;;;;;;3.91;74.91;98168.80;234289;215;150147;-53
2023/12/11 02:39:20;;;;;;;18.10;8.90;;;;;;;3.87;75.07;98169.15;234325;212;140175;-52
2023/12/11 02:44:23;;;;;;;13.40;8.30;;;;;;;3.84;75.12;98162.63;234349;215;137518;-54
2023/12/11 02:49:26;;;;;;;19.80;9.20;;;;;;;3.80;75.30;98147.20;234328;215;149110;-54
2023/12/11 02:54:30;;;;;;;19.90;9.10;;;;;;;3.76;75.43;98139.34;234442;215;139174;-53
2023/12/11 02:59:33;;;;;;;18.70;9.30;;;;;;;3.68;75.41;98134.12;234331;214;138213;-54
2023/12/11 03:04:36;;;;;;;16.50;7.70;;;;;;;3.65;75.74;98112.67;234253;215;149523;-52
2023/12/11 03:09:39;;;;;;;16.00;7.30;;;;;;;3.70;75.86;98106.84;234512;214;140024;-55
2023/12/11 03:14:42;;;;;;;21.40;8.40;;;;;;;3.82;76.03;98113.11;234428;215;138261;-55
2023/12/11 03:19:46;;;;;;;14.60;7.80;;;;;;;3.92;75.60;98108.73;234308;215;149273;-55
2023/12/11 03:24:49;;;;;;;16.50;7.80;;;;;;;3.94;75.56;98102.64;234456;213;138823;-53
2023/12/11 03:29:52;;;;;;;16.30;7.50;;;;;;;3.98;75.80;98107.16;234503;215;137814;-55
2023/12/11 03:34:56;;;;;;;17.10;8.40;;;;;;;4.04;75.88;98106.72;234353;214;149621;-54
2023/12/11 03:39:59;;;;;;;14.40;6.90;;;;;;;3.99;75.97;98099.75;234345;215;139281;-55
2023/12/11 03:45:03;;;;;;;12.90;6.10;;;;;;;4.01;76.14;98095.81;234314;215;136745;-52
2023/12/11 03:50:07;;;;;;;13.60;6.40;;;;;;;4.06;76.36;98097.70;234346;212;149185;-54
2023/12/11 03:55:10;;;;;;;11.50;5.90;;;;;;;4.08;76.43;98101.45;234275;215;138874;-53
2023/12/11 04:00:14;;;;;;;11.30;6.00;;;;;;;4.11;76.59;98095.29;234452;212;137829;-53
2023/12/11 04:05:17;;;;;;;9.50;5.30;;;;;;;4.20;76.26;98079.77;234309;214;150109;-52
2023/12/11 04:10:20;;;;;;;10.80;5.90;;;;;;;4.27;76.11;98068.83;233749;213;138809;-52
2023/12/11 04:15:27;;;;;;;21.00;15.20;;;;;;;4.29;75.87;98063.13;234310;215;137297;-52
2023/12/11 04:20:30;;;;;;;11.80;6.50;;;;;;;4.28;75.53;98044.05;234293;213;149336;-54
2023/12/11 04:25:33;;;;;;;12.20;6.40;;;;;;;4.25;75.93;98047.17;234307;215;140599;-55
2023/12/11 04:30:36;;;;;;;13.30;6.60;;;;;;;4.22;76.05;98040.11;234472;215;136754;-53
2023/12/11 04:35:40;;;;;;;11.40;5.90;;;;;;;4.22;75.82;98033.48;234325;214;149566;-52
2023/12/11 04:40:43;;;;;;;12.90;6.90;;;;;;;4.19;76.11;98042.80;234193;215;138752;-53
2023/12/11 04:45:49;;;;;;;11.50;5.70;;;;;;;4.18;76.34;98025.96;234386;213;138931;-53
2023/12/11 04:50:52;;;;;;;;;;;;;;;4.19;76.03;98011.70;234420;213;149515;-53
2023/12/11 04:55:55;;;;;;;11.90;5.70;;;;;;;4.21;75.85;97980.85;234415;215;138679;-53
2023/12/11 05:00:59;;;;;;;12.80;6.40;;;;;;;4.21;76.20;97958.23;234456;215;137055;-54
2023/12/11 05:06:02;;;;;;;13.50;6.00;;;;;;;4.24;76.17;97949.45;234184;214;150296;-54
2023/12/11 05:11:05;;;;;;;10.40;5.80;;;;;;;4.27;76.21;97939.60;234362;212;139577;-52
2023/12/11 05:16:09;;;;;;;15.90;6.00;;;;;;;4.29;76.24;97929.15;234382;215;137933;-52
2023/12/11 05:21:12;;;;;;;10.90;5.40;;;;;;;4.27;76.15;97936.13;234233;215;150327;-53
2023/12/11 05:26:19;;;;;;;9.30;5.40;;;;;;;4.28;76.42;97945.04;234116;215;139826;-51
2023/12/11 05:31:22;;;;;;;12.60;4.80;;;;;;;4.33;76.40;97957.41;234091;215;138312;-52
2023/12/11 05:36:25;;;;;;;11.90;5.10;;;;;;;4.43;76.17;97967.36;233889;211;149396;-52
2023/12/11 05:41:28;;;;;;;8.40;4.60;;;;;;;4.51;76.06;97977.84;233630;213;140931;-52
2023/12/11 05:46:32;;;;;;;11.90;5.40;;;;;;;4.58;75.75;97962.21;233989;215;137932;-52
2023/12/11 05:51:35;;;;;;;11.40;5.10;;;;;;;4.58;75.62;97966.41;234353;215;149300;-51
2023/12/11 05:56:38;;;;;;;14.70;6.50;;;;;;;4.55;75.83;97969.00;234379;215;138795;-53
2023/12/11 06:01:41;;;;;;;9.20;5.20;;;;;;;4.56;75.70;97955.45;234341;207;136855;-53
2023/12/11 06:06:45;;;;;;;9.70;5.50;;;;;;;4.54;75.62;97946.77;233556;213;151307;-53
2023/12/11 06:11:48;;;;;;;11.20;6.40;;;;;;;4.49;75.60;97948.98;233379;214;140407;-52
2023/12/11 06:16:51;;;;;;;13.70;6.20;;;;;;;4.43;75.49;97938.77;234423;215;137108;-53
2023/12/11 06:21:54;;;;;;;11.80;5.70;;;;;;;4.37;75.79;97942.44;234380;215;149960;-51
2023/12/11 06:26:58;;;;;;;14.10;6.40;;;;;;;4.34;76.27;97943.14;234584;213;140039;-52
2023/12/11 06:32:01;;;;;;;15.80;5.10;;;;;;;4.37;76.41;97948.07;234383;215;139411;-52
2023/12/11 06:37:05;;;;;;;242.70;181.10;;;;;;;4.57;77.34;97955.75;234410;212;149242;-52
2023/12/11 06:42:08;;;;;;;10.80;5.60;;;;;;;4.78;76.47;97963.16;233860;213;139157;-52
2023/12/11 06:47:13;;;;;;;146.50;79.10;;;;;;;5.09;75.15;97960.19;234033;212;136657;-53
2023/12/11 06:52:16;;;;;;;10.60;5.70;;;;;;;5.48;73.67;97962.84;234438;213;149742;-55
2023/12/11 06:57:20;;;;;;;13.10;4.90;;;;;;;5.83;72.33;97954.40;234339;208;140012;-52
2023/12/11 07:02:24;;;;;;;10.00;4.00;;;;;;;6.03;70.68;97948.86;234360;215;137735;-55
2023/12/11 07:07:27;;;;;;;8.50;4.00;;;;;;;6.15;69.44;97941.77;234306;215;149425;-54
2023/12/11 07:12:31;;;;;;;9.80;3.80;;;;;;;6.23;68.94;97939.02;234364;214;138849;-53
2023/12/11 07:17:34;;;;;;;7.50;3.50;;;;;;;6.29;68.40;97948.65;234271;215;257798;-54
2023/12/11 07:22:38;;;;;;;9.70;3.90;;;;;;;6.33;68.00;97954.39;234355;215;149448;-53
2023/12/11 07:27:43;;;;;;;9.80;4.30;;;;;;;6.39;67.52;97963.35;233976;214;139452;-56
2023/12/11 07:32:47;;;;;;;111.10;73.00;;;;;;;6.48;67.53;97956.95;234387;213;137254;-55
2023/12/11 07:37:50;;;;;;;43.40;25.10;;;;;;;6.55;67.53;97949.68;233993;215;150781;-56
2023/12/11 07:42:54;;;;;;;11.30;5.50;;;;;;;6.55;67.54;97947.36;233894;215;138475;-53
2023/12/11 07:47:57;;;;;;;13.00;5.60;;;;;;;6.40;67.86;97954.14;234320;213;137880;-53
2023/12/11 07:53:00;;;;;;;12.00;4.70;;;;;;;6.25;68.20;97957.71;234233;215;150015;-53
2023/12/11 07:58:04;;;;;;;10.90;4.60;;;;;;;6.11;68.65;97958.92;234259;215;139296;-57
2023/12/11 08:03:08;;;;;;;13.50;4.90;;;;;;;6.11;68.62;97958.91;234360;213;137468;-53
2023/12/11 08:08:12;;;;;;;11.80;4.80;;;;;;;6.11;69.08;97955.22;234312;212;150618;-54
2023/12/11 08:13:15;;;;;;;10.10;4.50;;;;;;;6.12;69.14;97948.09;234040;214;139028;-54
2023/12/11 08:18:18;;;;;;;10.10;3.90;;;;;;;6.34;68.71;97945.33;234464;211;136825;-54
2023/12/11 08:23:21;;;;;;;7.60;3.20;;;;;;;6.55;68.52;97937.33;234263;215;149341;-52
2023/12/11 08:28:25;;;;;;;8.80;5.00;;;;;;;6.77;68.33;97940.52;234303;215;139650;-53
2023/12/11 08:33:28;;;;;;;8.30;5.00;;;;;;;6.98;68.59;97944.58;234340;215;137787;-53
2023/12/11 08:38:32;;;;;;;4.90;2.40;;;;;;;7.17;68.04;97936.30;233506;215;149273;-60
2023/12/11 08:43:36;;;;;;;3.30;1.80;;;;;;;7.34;67.59;97937.29;234437;212;140528;-59
2023/12/11 08:48:39;;;;;;;4.60;1.60;;;;;;;7.42;67.19;97934.13;234106;215;138181;-59
2023/12/11 08:53:43;;;;;;;3.30;1.90;;;;;;;7.49;66.62;97932.95;234408;208;150177;-58
2023/12/11 08:58:47;;;;;;;1.90;1.50;;;;;;;7.54;66.50;97938.98;234311;215;137889;-57
2023/12/11 09:03:50;;;;;;;6.40;1.80;;;;;;;7.58;66.41;97931.45;233843;213;137126;-56
2023/12/11 09:08:53;;;;;;;2.70;1.90;;;;;;;7.67;66.37;97940.36;233583;214;149985;-57
2023/12/11 09:13:57;;;;;;;3.50;2.10;;;;;;;7.75;66.20;97940.73;234175;215;140097;-55
2023/12/11 09:19:00;;;;;;;13.90;9.30;;;;;;;7.90;65.88;97930.50;234380;215;137778;-59
2023/12/11 09:24:04;;;;;;;213.20;145.80;;;;;;;8.09;65.55;97925.15;234342;215;149490;-58
2023/12/11 09:29:07;;;;;;;6.40;2.90;;;;;;;8.20;65.28;97914.11;234139;215;138791;-56
2023/12/11 09:34:10;;;;;;;6.20;2.00;;;;;;;8.31;64.79;97914.21;233929;208;138268;-56
2023/12/11 09:39:14;;;;;;;4.00;1.40;;;;;;;8.43;64.69;97905.45;234097;211;149455;-58
2023/12/11 09:44:17;;;;;;;4.40;1.70;;;;;;;8.49;64.45;97901.09;234240;212;139714;-56
2023/12/11 09:49:21;;;;;;;4.20;1.80;;;;;;;8.53;64.34;97904.73;233734;207;137062;-60
2023/12/11 09:54:26;;;;;;;3.30;1.80;;;;;;;8.59;64.43;97902.19;234338;214;149475;-57
2023/12/11 09:59:30;;;;;;;3.00;1.60;;;;;;;8.67;64.26;97900.31;234217;208;138887;-59
2023/12/11 10:04:33;;;;;;;6.60;1.80;;;;;;;8.75;63.84;97899.59;234257;213;138088;-59
2023/12/11 10:09:36;;;;;;;4.00;1.70;;;;;;;8.89;63.79;97900.67;234337;211;150547;-59
2023/12/11 10:14:40;;;;;;;271.20;165.10;;;;;;;9.06;63.36;97904.79;234251;212;138900;-59
2023/12/11 10:19:43;;;;;;;14.20;6.10;;;;;;;9.14;63.70;97897.80;234315;212;137904;-59
2023/12/11 10:24:46;;;;;;;7.10;2.50;;;;;;;9.14;62.83;97899.35;234397;215;152930;-60
2023/12/11 10:30:12;;;;;;;4.40;2.20;;;;;;;9.15;62.38;97891.34;234361;207;139548;-60
2023/12/11 10:35:22;;;;;;;;;;;;;;;9.08;62.05;97898.02;234373;213;136965;-59
2023/12/11 10:40:41;;;;;;;62.60;40.00;;;;;;;9.00;62.17;97890.86;234265;208;149988;-61
2023/12/11 10:45:45;;;;;;;5.00;2.40;;;;;;;9.01;61.91;97894.70;234298;213;138870;-60
2023/12/11 10:50:53;;;;;;;3.30;2.10;;;;;;;8.90;61.77;97883.65;234399;208;137734;-61
2023/12/11 10:55:59;;;;;;;3.40;1.90;;;;;;;8.78;61.97;97875.51;234377;208;149365;-62
2023/12/11 11:01:07;;;;;;;4.20;2.30;;;;;;;8.73;62.24;97873.39;234331;213;138026;-58
2023/12/11 11:06:10;;;;;;;4.80;2.30;;;;;;;8.73;62.32;97868.58;234221;213;137940;-60
2023/12/11 11:11:31;;;;;;;3.60;2.30;;;;;;;8.79;62.40;97860.25;234221;213;149398;-58
2023/12/11 11:16:57;;;;;;;3.80;2.30;;;;;;;8.86;62.39;97860.59;234152;208;138832;-60
2023/12/11 11:22:02;;;;;;;4.20;2.40;;;;;;;8.96;62.19;97862.86;234159;208;246451;-61
2023/12/11 11:27:27;;;;;;;;;;;;;;;9.09;62.13;97855.17;234265;213;149415;-60
2023/12/11 11:32:53;;;;;;;4.20;2.50;;;;;;;9.26;61.69;97855.14;234510;211;139045;-59
2023/12/11 11:37:56;;;;;;;3.70;2.10;;;;;;;9.27;61.32;97853.64;234182;213;137151;-57
2023/12/11 11:42:59;;;;;;;5.50;2.30;;;;;;;9.17;61.24;97850.16;234500;215;149777;-59
2023/12/11 11:48:04;;;;;;;4.90;2.50;;;;;;;9.15;61.36;97849.71;234030;212;139771;-58
2023/12/11 11:53:13;;;;;;;6.40;2.60;;;;;;;9.19;61.45;97856.36;234283;208;137567;-58
2023/12/11 11:58:16;;;;;;;7.50;3.50;;;;;;;9.23;61.52;97852.50;234226;212;150159;-59
2023/12/11 12:03:20;;;;;;;5.20;2.50;;;;;;;9.25;61.21;97844.41;234121;212;138785;-59
2023/12/11 12:08:24;;;;;;;5.70;2.70;;;;;;;9.21;61.22;97843.97;233933;213;138041;-59
2023/12/11 12:13:36;;;;;;;6.00;2.50;;;;;;;9.20;61.25;97831.84;234323;208;149276;-58
2023/12/11 12:18:49;;;;;;;5.10;2.60;;;;;;;9.22;61.22;97822.64;234371;207;138514;-57
2023/12/11 12:24:06;;;;;;;4.90;2.60;;;;;;;9.19;61.23;97809.98;233649;213;137757;-58
2023/12/11 12:29:10;;;;;;;;;;;;;;;9.11;61.31;97807.78;234249;213;149576;-59
2023/12/11 12:34:16;;;;;;;5.70;2.30;;;;;;;9.11;61.59;97803.85;234359;212;138783;-59
2023/12/11 12:39:20;;;;;;;4.10;2.30;;;;;;;9.22;61.42;97806.23;234083;212;137477;-57
2023/12/11 12:44:23;;;;;;;6.80;2.80;;;;;;;9.33;61.12;97807.15;234349;208;150436;-59
2023/12/11 12:49:26;;;;;;;5.60;2.80;;;;;;;9.39;60.77;97809.11;233906;208;138712;-58
2023/12/11 12:54:46;;;;;;;4.80;2.80;;;;;;;9.38;60.58;97794.22;234042;213;136908;-58
2023/12/11 12:59:50;;;;;;;3.90;2.40;;;;;;;9.38;60.71;97789.95;234285;211;150054;-59
2023/12/11 13:04:54;;;;;;;7.20;2.90;;;;;;;9.34;60.51;97784.23;234210;213;139401;-59
2023/12/11 13:10:13;;;;;;;5.20;2.70;;;;;;;9.28;60.57;97793.04;234305;213;137417;-59
2023/12/11 13:15:17;;;;;;;5.80;2.60;;;;;;;9.20;60.71;97786.20;234270;213;149629;-57
2023/12/11 13:20:20;;;;;;;5.40;2.80;;;;;;;9.16;60.98;97779.98;234163;208;138903;-58
2023/12/11 13:25:24;;;;;;;9.20;2.40;;;;;;;9.13;60.97;97781.96;234213;208;138015;-62
2023/12/11 13:30:27;;;;;;;4.50;2.50;;;;;;;9.12;61.02;97782.86;234404;213;149597;-60
2023/12/11 13:35:31;;;;;;;5.90;2.70;;;;;;;9.14;60.89;97773.04;234264;208;139397;-59
2023/12/11 13:40:34;;;;;;;6.40;2.10;;;;;;;9.17;60.76;97775.66;234293;215;138047;-58
2023/12/11 13:45:38;;;;;;;4.20;2.20;;;;;;;9.15;60.68;97780.23;234232;212;149502;-58
2023/12/11 13:50:42;;;;;;;6.90;2.80;;;;;;;9.12;60.64;97787.67;234310;212;139008;-57
2023/12/11 13:55:45;;;;;;;4.50;2.60;;;;;;;9.07;60.70;97796.76;234049;213;137759;-58
2023/12/11 14:00:49;;;;;;;6.20;2.60;;;;;;;9.06;60.88;97791.66;234406;213;149809;-59
2023/12/11 14:05:52;;;;;;;8.00;2.30;;;;;;;9.07;60.87;97784.19;234093;213;138821;-60
2023/12/11 14:10:56;;;;;;;4.80;2.50;;;;;;;8.98;60.91;97788.63;233957;212;137256;-60
2023/12/11 14:15:59;;;;;;;3.90;2.10;;;;;;;8.89;61.14;97795.64;234381;212;149051;-59
2023/12/11 14:21:04;;;;;;;6.10;2.20;;;;;;;8.86;61.36;97788.41;234274;212;138789;-59
2023/12/11 14:26:07;;;;;;;6.50;4.10;;;;;;;8.86;61.59;97786.29;234046;213;139656;-60
2023/12/11 14:31:11;;;;;;;6.40;2.70;;;;;;;8.86;61.52;97786.33;234479;213;149174;-59
2023/12/11 14:36:15;;;;;;;7.00;2.80;;;;;;;8.78;61.51;97788.46;234056;208;140344;-57
2023/12/11 14:41:28;;;;;;;5.40;3.00;;;;;;;8.72;61.77;97801.53;234400;208;136760;-59
2023/12/11 14:46:32;;;;;;;5.60;3.00;;;;;;;8.66;61.92;97807.27;234195;213;149922;-56
2023/12/11 14:51:38;;;;;;;4.10;2.80;;;;;;;8.61;62.01;97808.32;234200;213;139596;-57
2023/12/11 14:56:42;;;;;;;6.90;2.80;;;;;;;8.56;62.21;97807.44;234108;212;137987;-56
2023/12/11 15:01:47;;;;;;;6.20;3.20;;;;;;;8.52;62.27;97798.73;234274;213;150366;-58
2023/12/11 15:06:53;;;;;;;6.60;3.30;;;;;;;8.48;62.55;97790.71;234226;208;138913;-57
2023/12/11 15:11:56;;;;;;;;;;;;;;;8.44;62.45;97806.96;234281;213;137652;-56
2023/12/11 15:17:00;;;;;;;5.10;2.70;;;;;;;8.36;62.65;97799.92;234315;212;150098;-57
2023/12/11 15:22:03;;;;;;;6.80;2.90;;;;;;;8.32;62.94;97801.39;234168;212;140051;-56
2023/12/11 15:27:06;;;;;;;5.50;3.90;;;;;;;8.31;63.05;97803.05;234237;213;137807;-56
2023/12/11 15:32:10;;;;;;;7.10;3.50;;;;;;;8.26;63.14;97803.40;233671;208;150604;-57
2023/12/11 15:37:13;;;;;;;7.90;3.80;;;;;;;8.19;63.27;97804.96;234259;208;139497;-57
2023/12/11 15:42:19;;;;;;;8.30;3.60;;;;;;;8.14;63.44;97802.91;233994;215;137327;-58
2023/12/11 15:47:22;;;;;;;5.90;3.50;;;;;;;8.10;63.66;97801.23;234322;213;149096;-58
2023/12/11 15:52:25;;;;;;;8.40;3.90;;;;;;;8.10;63.69;97799.49;234001;208;138940;-57
2023/12/11 15:57:29;;;;;;;11.20;3.50;;;;;;;8.09;63.92;97805.88;234281;213;136733;-58
2023/12/11 16:02:32;;;;;;;7.10;3.60;;;;;;;8.07;63.86;97793.48;234360;213;149826;-58
2023/12/11 16:07:36;;;;;;;6.40;3.60;;;;;;;8.12;63.81;97782.39;234239;215;139855;-57
2023/12/11 16:12:40;;;;;;;5.40;3.80;;;;;;;8.13;63.83;97769.77;233997;208;136622;-57
2023/12/11 16:17:43;;;;;;;6.70;3.80;;;;;;;8.12;63.77;97769.09;234005;213;150267;-58
2023/12/11 16:22:46;;;;;;;85.30;52.10;;;;;;;8.14;64.26;97763.48;234236;212;138611;-58
2023/12/11 16:27:50;;;;;;;11.30;5.90;;;;;;;8.15;63.93;97761.85;234348;212;140576;-56
2023/12/11 16:32:53;;;;;;;10.80;4.70;;;;;;;8.07;63.76;97761.52;234326;215;149976;-55
2023/12/11 16:37:58;;;;;;;10.70;5.00;;;;;;;7.99;63.91;97756.48;234330;213;140083;-58
2023/12/11 16:43:03;;;;;;;8.90;4.70;;;;;;;7.93;64.12;97757.05;234370;213;139268;-56
2023/12/11 16:48:07;;;;;;;8.50;4.50;;;;;;;7.90;64.35;97757.81;234345;212;150118;-55
2023/12/11 16:53:10;;;;;;;8.50;4.70;;;;;;;7.87;64.24;97756.98;233970;208;138887;-56
2023/12/11 16:58:13;;;;;;;10.40;5.20;;;;;;;7.78;64.34;97750.52;234348;211;136888;-55
2023/12/11 17:03:17;;;;;;;7.10;4.40;;;;;;;7.72;64.47;97747.05;234255;213;149647;-58
2023/12/11 17:08:20;;;;;;;9.60;4.90;;;;;;;7.70;64.66;97756.55;234170;213;139518;-56
2023/12/11 17:13:23;;;;;;;10.00;4.60;;;;;;;7.70;65.05;97757.63;233837;207;136433;-57
2023/12/11 17:18:27;;;;;;;7.80;4.10;;;;;;;7.73;65.16;97748.03;234443;207;149393;-54
2023/12/11 17:23:30;;;;;;;9.30;4.10;;;;;;;7.77;65.23;97741.98;234193;213;138967;-57
2023/12/11 17:28:33;;;;;;;9.20;4.10;;;;;;;7.84;65.36;97739.51;234263;209;139641;-55
2023/12/11 17:33:37;;;;;;;9.90;4.80;;;;;;;7.91;65.21;97734.23;234336;212;150014;-57
2023/12/11 17:38:40;;;;;;;7.10;4.40;;;;;;;7.95;65.18;97732.06;234012;213;138786;-57
2023/12/11 17:43:43;;;;;;;9.50;4.50;;;;;;;8.03;65.05;97729.83;234249;212;137967;-58
2023/12/11 17:48:47;;;;;;;9.30;5.00;;;;;;;8.06;65.02;97734.55;234440;208;149520;-62
2023/12/11 17:53:50;;;;;;;10.90;4.30;;;;;;;8.09;64.93;97732.74;234291;213;139625;-56
2023/12/11 17:58:54;;;;;;;7.90;4.40;;;;;;;8.11;64.90;97723.95;234273;207;139035;-56
2023/12/11 18:04:01;;;;;;;9.90;4.40;;;;;;;8.12;64.91;97720.02;234257;212;149953;-58
2023/12/11 18:09:04;;;;;;;8.10;4.20;;;;;;;8.10;64.80;97716.27;234310;208;140132;-57
2023/12/11 18:14:08;;;;;;;6.80;4.30;;;;;;;8.09;65.00;97710.52;233471;215;136916;-57
2023/12/11 18:19:11;;;;;;;9.30;4.60;;;;;;;8.10;64.80;97707.06;234136;212;150477;-57
2023/12/11 18:24:14;;;;;;;8.80;4.40;;;;;;;8.08;64.64;97704.27;233958;211;138443;-57
2023/12/11 18:29:19;;;;;;;11.70;5.30;;;;;;;7.98;64.85;97713.82;234342;211;137643;-56
2023/12/11 18:34:25;;;;;;;8.90;4.80;;;;;;;7.84;64.89;97707.74;234443;212;149989;-55
2023/12/11 18:39:45;;;;;;;13.30;5.40;;;;;;;7.67;65.07;97703.98;234642;211;140880;-57
2023/12/11 18:44:48;;;;;;;8.80;5.00;;;;;;;7.48;65.25;97710.12;233906;211;136907;-57
2023/12/11 18:49:51;;;;;;;12.60;6.00;;;;;;;7.32;65.83;97702.45;233584;212;149391;-55
2023/12/11 18:54:55;;;;;;;12.70;5.90;;;;;;;7.17;66.13;97691.86;234678;211;138892;-54
2023/12/11 18:59:58;;;;;;;14.40;7.40;;;;;;;7.04;66.79;97693.48;234639;211;137463;-55
2023/12/11 19:05:02;;;;;;;15.00;6.10;;;;;;;6.93;67.02;97690.53;234470;208;152387;-56
2023/12/11 19:10:06;;;;;;;10.10;6.60;;;;;;;6.84;67.46;97688.52;234431;207;139596;-56
2023/12/11 19:15:09;;;;;;;13.70;6.70;;;;;;;6.79;68.02;97686.71;234388;212;138275;-56
2023/12/11 19:20:13;;;;;;;11.60;6.40;;;;;;;6.79;68.30;97681.77;234640;212;150568;-55
2023/12/11 19:25:17;;;;;;;10.70;5.90;;;;;;;6.96;68.72;97685.21;234364;212;139279;-56
2023/12/11 19:30:21;;;;;;;8.90;5.10;;;;;;;7.23;68.59;97681.02;234699;212;136920;-56
2023/12/11 19:35:24;;;;;;;10.20;5.00;;;;;;;7.44;68.32;97679.77;234681;207;149362;-56
2023/12/11 19:40:27;;;;;;;11.20;5.00;;;;;;;7.56;68.05;97678.48;234505;211;140260;-56
2023/12/11 19:45:32;;;;;;;9.70;5.20;;;;;;;7.68;67.90;97684.19;233776;212;137860;-55
2023/12/11 19:50:35;;;;;;;14.00;6.60;;;;;;;7.76;67.48;97679.91;234492;211;150444;-57
2023/12/11 19:55:39;;;;;;;15.90;6.00;;;;;;;7.67;67.01;97680.39;233899;207;138957;-56
2023/12/11 20:00:42;;;;;;;750.40;538.70;;;;;;;7.58;67.96;97685.58;234009;208;137919;-56
2023/12/11 20:05:45;;;;;;;28.70;15.60;;;;;;;7.81;67.64;97682.72;234054;212;151259;-55
2023/12/11 20:10:49;;;;;;;13.20;7.80;;;;;;;7.76;66.69;97679.71;233544;207;139537;-55
2023/12/11 20:15:52;;;;;;;12.00;6.20;;;;;;;7.59;67.02;97676.55;233093;211;136853;-57
2023/12/11 20:20:55;;;;;;;13.60;6.40;;;;;;;7.55;67.45;97683.71;233494;212;149215;-56
2023/12/11 20:26:01;;;;;;;12.00;6.50;;;;;;;7.45;67.52;97684.80;232586;207;138808;-56
2023/12/11 20:31:14;;;;;;;15.10;7.30;;;;;;;7.36;67.94;97682.02;234158;212;138495;-58
2023/12/11 20:36:19;;;;;;;132.40;76.90;;;;;;;7.38;69.62;97695.70;233351;212;149339;-55
2023/12/11 20:41:27;;;;;;;11.40;6.70;;;;;;;7.43;69.29;97699.19;234097;206;139561;-55
2023/12/11 20:46:31;;;;;;;11.40;6.40;;;;;;;7.29;69.19;97704.20;233941;208;138188;-57
2023/12/11 20:51:36;;;;;;;13.30;7.00;;;;;;;7.38;69.53;97697.48;234209;212;150438;-58
2023/12/11 20:56:39;;;;;;;18.80;8.10;;;;;;;7.34;69.52;97696.70;234269;208;139173;-57
2023/12/11 21:01:42;;;;;;;15.10;7.00;;;;;;;7.25;69.67;97697.83;234342;211;137668;-57
2023/12/11 21:06:46;;;;;;;16.70;8.20;;;;;;;7.17;69.82;97702.27;233671;207;149366;-58
2023/12/11 21:11:49;;;;;;;18.10;7.70;;;;;;;7.09;70.07;97703.16;234208;212;139039;-57
2023/12/11 21:16:52;;;;;;;13.10;7.30;;;;;;;6.96;70.26;97711.81;234547;208;137091;-57
2023/12/11 21:21:55;;;;;;;15.50;7.20;;;;;;;6.85;70.86;97708.36;233945;212;149238;-58
2023/12/11 21:26:59;;;;;;;9.80;5.60;;;;;;;6.84;71.53;97714.22;234278;208;138781;-59
2023/12/11 21:32:04;;;;;;;12.70;6.30;;;;;;;7.02;71.76;97717.25;234267;213;138164;-55
2023/12/11 21:41:51;;;;;;;11.00;5.80;;;;;;;7.43;71.43;97712.42;232666;218;699403;-57
2023/12/11 21:46:54;;;;;;;12.80;6.80;;;;;;;7.62;70.99;97717.92;234289;214;136137;-56
2023/12/11 21:51:57;;;;;;;13.40;7.30;;;;;;;7.83;70.50;97723.90;234165;214;144365;-57
2023/12/11 21:57:01;;;;;;;13.40;7.50;;;;;;;7.94;70.16;97731.23;234214;214;139710;-56
2023/12/11 22:02:05;;;;;;;14.80;8.20;;;;;;;7.99;69.85;97732.98;234063;214;138637;-58
2023/12/11 22:07:08;;;;;;;14.70;7.80;;;;;;;7.98;69.69;97737.81;233885;214;143738;-57
2023/12/11 22:12:12;;;;;;;14.40;7.80;;;;;;;7.97;69.74;97742.27;234557;211;139738;-56
2023/12/11 22:17:15;;;;;;;13.60;7.70;;;;;;;8.00;69.65;97742.95;234492;207;136300;-58
2023/12/11 22:22:18;;;;;;;13.80;7.30;;;;;;;7.97;69.74;97750.45;234426;212;144180;-58
2023/12/11 22:27:21;;;;;;;10.40;6.50;;;;;;;7.94;69.90;97749.22;234393;215;138742;-56
2023/12/11 22:32:24;;;;;;;10.30;5.70;;;;;;;7.92;70.16;97752.92;234436;212;136328;-56
2023/12/11 22:37:28;;;;;;;9.70;5.50;;;;;;;7.95;70.22;97756.93;234007;212;145709;-57
2023/12/11 22:42:32;;;;;;;10.50;5.00;;;;;;;8.01;70.34;97758.77;234473;213;139447;-57
2023/12/11 22:47:35;;;;;;;7.60;5.10;;;;;;;8.04;70.38;97760.87;234461;212;137542;-59
2023/12/11 22:52:38;;;;;;;9.50;4.60;;;;;;;8.08;70.59;97759.01;234106;213;146510;-57
2023/12/11 22:57:42;;;;;;;7.60;4.50;;;;;;;8.16;70.63;97763.69;233982;212;138886;-58
2023/12/11 23:02:45;;;;;;;6.80;4.40;;;;;;;8.14;70.66;97768.27;234033;209;136979;-57
2023/12/11 23:07:53;;;;;;;7.40;4.10;;;;;;;8.07;70.92;97769.31;234468;208;145585;-58
2023/12/11 23:12:56;;;;;;;7.00;3.80;;;;;;;8.01;71.36;97783.34;234479;212;138661;-59
2023/12/11 23:17:59;;;;;;;6.60;4.10;;;;;;;7.98;71.59;97783.91;234470;212;139485;-58
2023/12/11 23:23:03;;;;;;;6.30;2.80;;;;;;;8.00;71.97;97775.99;234410;213;145682;-57
2023/12/11 23:28:06;;;;;;;5.20;2.90;;;;;;;8.02;72.13;97774.40;234416;213;138905;-63
2023/12/11 23:33:09;;;;;;;4.40;2.80;;;;;;;8.09;72.26;97781.49;234321;213;136363;-56
2023/12/11 23:38:12;;;;;;;6.40;3.20;;;;;;;8.13;72.07;97779.80;234323;207;145841;-58
2023/12/11 23:43:16;;;;;;;5.30;2.50;;;;;;;8.11;72.13;97787.55;234268;212;140307;-57
2023/12/11 23:48:19;;;;;;;4.30;2.70;;;;;;;8.00;72.30;97784.84;234426;213;137393;-56